Time;durP1;ratioP1;P1;durP2;ratioP2;P2;SDS_P1;SDS_P2;PMS_P1;PMS_P2;Temp;Humidity;BMP_temperature;BMP_pressure;BME280_temperature;BME280_humidity;BME280_pressure;Samples;Min_cycle;Max_cycle;Signal;HPM_P1;HPM_P2
2021/12/22 00:00:36;;;;;;;14.13;9.77;;;7.90;89.80;;;;;;5075445;28;20101;-67
2021/12/22 00:03:06;;;;;;;12.93;8.30;;;7.90;90.00;;;;;;5077155;28;20052;-66
2021/12/22 00:05:42;;;;;;;17.20;9.10;;;7.90;89.90;;;;;;5092889;28;20036;-66
2021/12/22 00:08:13;;;;;;;12.93;8.18;;;7.90;89.60;;;;;;5075385;28;20098;-67
2021/12/22 00:10:42;;;;;;;14.05;7.40;;;7.90;89.90;;;;;;5087230;28;20036;-67
2021/12/22 00:13:10;;;;;;;14.43;7.78;;;7.80;89.70;;;;;;5089985;28;20048;-67
2021/12/22 00:15:38;;;;;;;11.30;7.90;;;7.80;89.60;;;;;;5074677;28;20501;-68
2021/12/22 00:18:05;;;;;;;12.45;7.82;;;7.80;89.50;;;;;;5074286;28;20441;-66
2021/12/22 00:20:34;;;;;;;11.70;7.40;;;7.80;89.20;;;;;;5077238;28;20048;-68
2021/12/22 00:23:01;;;;;;;13.82;8.55;;;7.80;89.30;;;;;;5098646;28;20051;-66
2021/12/22 00:25:29;;;;;;;13.77;8.55;;;7.80;89.20;;;;;;5076260;28;20047;-66
2021/12/22 00:27:58;;;;;;;14.98;8.82;;;7.80;89.20;;;;;;5074273;28;20064;-66
2021/12/22 00:30:26;;;;;;;12.73;8.70;;;7.80;89.10;;;;;;5076143;28;20044;-68
2021/12/22 00:33:02;;;;;;;10.18;6.38;;;7.90;89.60;;;;;;5087713;28;20040;-66
2021/12/22 00:35:38;;;;;;;9.60;6.72;;;7.90;90.20;;;;;;5076827;28;20046;-66
2021/12/22 00:38:07;;;;;;;8.90;6.05;;;7.90;90.00;;;;;;5074982;28;20131;-66
2021/12/22 00:40:36;;;;;;;9.82;5.68;;;8.00;90.00;;;;;;5080498;28;20508;-67
2021/12/22 00:43:04;;;;;;;11.45;5.38;;;8.00;89.80;;;;;;5096348;28;20042;-67
2021/12/22 00:45:34;;;;;;;8.93;5.65;;;8.00;89.70;;;;;;5078380;28;20122;-66
2021/12/22 00:48:04;;;;;;;8.20;5.45;;;8.00;89.60;;;;;;5089544;28;20039;-67
2021/12/22 00:50:33;;;;;;;11.65;5.68;;;8.00;89.40;;;;;;5071860;28;20039;-66
2021/12/22 00:53:01;;;;;;;9.35;5.70;;;8.00;89.20;;;;;;5054952;28;20060;-66
2021/12/22 00:55:28;;;;;;;9.75;4.85;;;8.10;89.10;;;;;;5086736;28;20048;-68
2021/12/22 00:57:56;;;;;;;7.95;4.93;;;8.10;88.90;;;;;;5090359;28;20100;-67
2021/12/22 01:00:26;;;;;;;7.45;5.13;;;8.10;88.80;;;;;;5089558;28;20069;-68
2021/12/22 01:02:54;;;;;;;6.57;4.68;;;8.10;88.40;;;;;;5095702;28;20098;-66
2021/12/22 01:05:23;;;;;;;7.32;4.35;;;8.10;88.20;;;;;;5062546;28;20051;-66
2021/12/22 01:07:51;;;;;;;10.18;5.05;;;8.10;87.90;;;;;;5095937;28;20469;-66
2021/12/22 01:10:23;;;;;;;6.43;4.68;;;8.10;87.50;;;;;;5075582;28;20402;-66
2021/12/22 01:12:53;;;;;;;6.18;4.60;;;8.20;87.70;;;;;;5093050;28;20064;-66
2021/12/22 01:15:22;;;;;;;6.78;3.20;;;8.20;87.60;;;;;;5079185;28;20054;-66
2021/12/22 01:17:58;;;;;;;8.90;3.97;;;8.20;87.30;;;;;;5075241;28;20132;-66
2021/12/22 01:20:33;;;;;;;8.18;3.88;;;8.20;87.10;;;;;;5096006;28;20122;-66
2021/12/22 01:23:03;;;;;;;5.75;3.30;;;8.20;86.90;;;;;;5060553;28;20040;-66
2021/12/22 01:25:35;;;;;;;6.40;3.50;;;8.30;87.50;;;;;;5059780;28;20075;-66
2021/12/22 01:28:04;;;;;;;5.80;3.38;;;8.20;87.80;;;;;;5060341;28;20055;-66
2021/12/22 01:30:32;;;;;;;4.82;3.38;;;8.20;87.90;;;;;;5077170;28;20044;-66
2021/12/22 01:33:02;;;;;;;5.32;3.05;;;8.20;88.10;;;;;;5076955;28;20062;-66
2021/12/22 01:35:33;;;;;;;5.70;3.65;;;8.20;88.50;;;;;;5077148;28;20064;-66
2021/12/22 01:38:02;;;;;;;4.93;3.03;;;8.20;88.80;;;;;;5060228;28;20056;-66
2021/12/22 01:40:30;;;;;;;7.40;3.42;;;8.20;88.80;;;;;;5060495;28;20094;-66
2021/12/22 01:42:58;;;;;;;4.72;3.45;;;8.20;88.60;;;;;;5076870;28;20367;-66
2021/12/22 01:46:20;;;;;;;8.00;3.03;;;8.20;88.60;;;;;;5076795;28;20131;-66
2021/12/22 01:49:11;;;;;;;5.30;2.88;;;8.20;88.60;;;;;;5076694;28;20087;-66
2021/12/22 01:51:38;;;;;;;3.83;2.33;;;8.20;89.00;;;;;;4976766;28;20052;-66
2021/12/22 01:54:12;;;;;;;5.35;2.92;;;8.20;89.00;;;;;;5082140;28;20078;-66
2021/12/22 01:56:42;;;;;;;5.97;3.05;;;8.20;89.10;;;;;;5059808;28;20082;-65
2021/12/22 01:59:10;;;;;;;5.55;3.20;;;8.20;89.10;;;;;;5059430;28;20058;-66
2021/12/22 02:01:39;;;;;;;6.18;2.90;;;8.20;89.10;;;;;;5076198;28;20046;-66
2021/12/22 02:04:11;;;;;;;4.03;2.80;;;8.20;89.10;;;;;;5059822;28;20036;-65
2021/12/22 02:06:41;;;;;;;13.35;2.75;;;8.20;89.20;;;;;;5094324;28;20047;-65
2021/12/22 02:09:10;;;;;;;4.90;2.80;;;8.20;89.40;;;;;;5076105;28;20043;-65
2021/12/22 02:11:38;;;;;;;4.78;2.30;;;8.20;89.40;;;;;;5076596;28;20047;-65
2021/12/22 02:14:07;;;;;;;3.75;2.40;;;8.20;89.30;;;;;;5092809;28;20043;-66
2021/12/22 02:16:39;;;;;;;5.10;2.40;;;8.20;89.10;;;;;;5076365;28;20471;-65
2021/12/22 02:19:09;;;;;;;6.43;4.15;;;8.20;88.90;;;;;;5076138;28;20044;-66
2021/12/22 02:21:44;;;;;;;6.53;3.47;;;8.20;89.10;;;;;;5059439;28;20052;-65
2021/12/22 02:24:12;;;;;;;5.53;4.10;;;8.20;89.20;;;;;;5059648;28;20063;-66
2021/12/22 02:29:38;;;;;;;7.63;3.92;;;8.20;89.40;;;;;;5073593;28;20036;-65
2021/12/22 02:32:10;;;;;;;7.00;4.57;;;8.20;89.40;;;;;;5075922;28;20437;-65
2021/12/22 02:34:44;;;;;;;8.10;4.05;;;8.20;89.20;;;;;;5075973;28;20163;-65
2021/12/22 02:37:16;;;;;;;8.82;3.75;;;8.20;88.90;;;;;;5058504;28;20393;-66
2021/12/22 02:39:57;;;;;;;7.22;3.67;;;8.20;89.20;;;;;;5075867;28;20115;-65
2021/12/22 02:42:33;;;;;;;6.72;4.35;;;8.20;89.70;;;;;;5075941;28;20075;-65
2021/12/22 02:45:16;;;;;;;8.07;4.05;;;8.20;89.80;;;;;;5093921;28;20127;-65
2021/12/22 02:47:43;;;;;;;9.82;3.50;;;8.20;89.80;;;;;;5094012;28;20090;-65
2021/12/22 02:50:13;;;;;;;6.53;4.03;;;8.30;89.60;;;;;;5092330;28;20075;-66
2021/12/22 02:53:04;;;;;;;4.75;2.88;;;8.20;89.40;;;;;;5075555;28;20040;-65
2021/12/22 02:56:00;;;;;;;6.47;3.60;;;8.20;89.40;;;;;;5059057;28;20044;-65
2021/12/22 02:58:32;;;;;;;7.85;3.75;;;8.20;89.20;;;;;;5074460;28;20130;-65
2021/12/22 03:09:24;;;;;;;4.53;3.05;;;8.20;89.40;;;;;;5047787;28;20048;-66
2021/12/22 03:11:54;;;;;;;5.85;3.42;;;8.20;88.30;;;;;;5061454;28;20158;-66
2021/12/22 03:14:23;;;;;;;5.30;2.63;;;8.10;88.40;;;;;;5079669;28;20040;-66
2021/12/22 03:16:51;;;;;;;6.22;3.45;;;8.20;88.50;;;;;;5096070;28;20044;-66
2021/12/22 03:19:28;;;;;;;6.40;3.40;;;8.20;88.50;;;;;;5063051;28;20056;-66
2021/12/22 03:22:03;;;;;;;6.47;3.35;;;8.20;88.40;;;;;;5079659;28;20047;-66
2021/12/22 03:24:33;;;;;;;3.97;2.63;;;8.20;88.40;;;;;;5097461;28;20040;-66
2021/12/22 03:27:03;;;;;;;6.22;2.40;;;8.20;88.60;;;;;;5063024;28;20134;-66
2021/12/22 03:29:34;;;;;;;6.30;3.35;;;8.20;88.20;;;;;;5079464;28;20063;-66
2021/12/22 03:32:02;;;;;;;3.78;2.42;;;8.20;88.10;;;;;;5062982;28;20066;-65
2021/12/22 03:34:30;;;;;;;5.45;2.63;;;8.20;87.90;;;;;;5079391;28;20048;-66
2021/12/22 03:36:57;;;;;;;3.47;2.83;;;8.20;87.90;;;;;;5079111;28;20489;-66
2021/12/22 03:39:27;;;;;;;3.40;1.80;;;8.20;88.00;;;;;;5079185;28;20055;-66
2021/12/22 03:41:55;;;;;;;3.50;1.92;;;8.20;88.10;;;;;;5079280;28;20067;-65
2021/12/22 03:44:23;;;;;;;4.03;2.10;;;8.20;88.40;;;;;;5079008;28;20082;-66
2021/12/22 03:46:51;;;;;;;3.95;2.33;;;8.20;88.40;;;;;;5079031;28;20036;-65
2021/12/22 03:49:19;;;;;;;4.30;2.10;;;8.20;88.50;;;;;;5078682;28;20044;-66
2021/12/22 03:51:47;;;;;;;6.05;2.72;;;8.20;88.50;;;;;;5062951;28;20367;-66
2021/12/22 03:54:14;;;;;;;5.32;2.00;;;8.20;88.30;;;;;;5097122;28;20059;-66
2021/12/22 03:56:42;;;;;;;5.38;2.20;;;8.30;88.40;;;;;;5078685;28;20504;-66
2021/12/22 03:59:09;;;;;;;5.75;2.80;;;8.20;88.30;;;;;;5078577;28;20555;-66
2021/12/22 04:01:37;;;;;;;3.33;1.80;;;8.20;88.40;;;;;;5095300;28;20509;-65
2021/12/22 04:04:12;;;;;;;3.80;2.22;;;8.20;88.60;;;;;;5096558;28;20444;-66
2021/12/22 04:06:42;;;;;;;3.75;2.13;;;8.30;88.60;;;;;;5078787;28;20042;-66
2021/12/22 04:09:10;;;;;;;3.70;2.10;;;8.30;88.50;;;;;;5061866;28;20048;-66
2021/12/22 04:11:37;;;;;;;5.78;2.20;;;8.30;88.50;;;;;;5078616;28;20079;-66
2021/12/22 04:14:05;;;;;;;2.58;1.58;;;8.30;88.50;;;;;;5078765;28;20498;-66
2021/12/22 04:16:33;;;;;;;5.10;1.98;;;8.30;88.40;;;;;;5061515;28;20043;-66
2021/12/22 04:19:01;;;;;;;8.52;2.83;;;8.30;87.70;;;;;;5062007;28;20048;-65
2021/12/22 04:21:29;;;;;;;4.47;1.90;;;8.30;87.40;;;;;;5078359;28;20040;-66
2021/12/22 04:23:57;;;;;;;3.63;1.77;;;8.30;87.20;;;;;;5060946;28;20142;-66
2021/12/22 04:26:27;;;;;;;2.25;1.60;;;8.30;86.50;;;;;;5044990;28;20056;-66
2021/12/22 04:28:54;;;;;;;3.70;1.65;;;8.30;86.20;;;;;;5078181;28;20039;-65
2021/12/22 04:31:22;;;;;;;3.70;1.80;;;8.30;86.70;;;;;;5077994;28;20120;-65
2021/12/22 04:33:49;;;;;;;2.50;1.90;;;8.30;86.90;;;;;;5096071;28;20177;-65
2021/12/22 04:36:17;;;;;;;4.75;2.72;;;8.40;87.20;;;;;;5078230;28;20040;-65
2021/12/22 04:38:44;;;;;;;3.67;2.03;;;8.40;87.30;;;;;;5077846;28;20056;-66
2021/12/22 04:41:12;;;;;;;3.13;1.80;;;8.40;87.20;;;;;;5077942;28;20401;-66
2021/12/22 04:43:39;;;;;;;3.47;1.90;;;8.40;87.30;;;;;;5061398;28;20044;-66
2021/12/22 04:46:07;;;;;;;4.68;2.42;;;8.30;87.20;;;;;;5095822;28;20058;-65
2021/12/22 04:48:35;;;;;;;3.72;2.03;;;8.30;86.80;;;;;;5061277;28;20052;-65
2021/12/22 04:51:12;;;;;;;2.85;1.73;;;8.30;87.00;;;;;;5061674;28;20052;-65
2021/12/22 04:53:58;;;;;;;4.10;2.50;;;8.30;87.10;;;;;;5060987;28;20052;-65
2021/12/22 04:56:25;;;;;;;4.00;2.70;;;8.30;87.30;;;;;;5095746;28;20048;-65
2021/12/22 04:58:53;;;;;;;3.28;2.22;;;8.30;87.00;;;;;;5061136;28;20044;-66
2021/12/22 05:01:21;;;;;;;4.30;2.63;;;8.20;87.20;;;;;;5061221;28;20078;-66
2021/12/22 05:03:48;;;;;;;4.15;1.92;;;8.20;87.80;;;;;;5095591;28;20170;-66
2021/12/22 05:06:16;;;;;;;3.75;1.92;;;8.20;88.20;;;;;;5095465;28;20394;-66
2021/12/22 05:08:43;;;;;;;5.95;3.33;;;8.20;88.20;;;;;;5095419;28;20041;-66
2021/12/22 05:11:11;;;;;;;12.60;6.70;;;8.20;88.20;;;;;;5077441;28;20442;-65
2021/12/22 05:13:40;;;;;;;11.05;5.43;;;8.20;87.50;;;;;;5077289;28;20491;-65
2021/12/22 05:16:15;;;;;;;8.85;5.35;;;8.20;87.10;;;;;;5044133;28;20044;-65
2021/12/22 05:18:58;;;;;;;10.23;4.93;;;8.20;87.10;;;;;;5060836;28;20051;-65
2021/12/22 05:21:27;;;;;;;6.85;4.57;;;8.20;87.50;;;;;;5095235;28;20390;-65
2021/12/22 05:23:55;;;;;;;7.32;3.95;;;8.20;87.50;;;;;;5077326;28;20085;-65
2021/12/22 05:26:25;;;;;;;6.50;3.50;;;8.20;87.10;;;;;;5060727;28;20135;-65
2021/12/22 05:28:54;;;;;;;7.25;4.82;;;8.20;86.80;;;;;;5077168;28;20089;-65
2021/12/22 05:31:23;;;;;;;6.65;3.65;;;8.20;86.60;;;;;;5076950;28;20036;-65
2021/12/22 05:33:51;;;;;;;7.60;4.32;;;8.20;86.30;;;;;;5076920;28;20517;-65
2021/12/22 05:36:18;;;;;;;10.27;4.18;;;8.20;86.50;;;;;;5076913;28;20135;-65
2021/12/22 05:38:46;;;;;;;6.72;5.72;;;8.20;86.60;;;;;;5076525;28;20060;-65
2021/12/22 05:41:14;;;;;;;9.13;4.40;;;8.20;86.70;;;;;;5076888;28;20043;-65
2021/12/22 05:43:41;;;;;;;6.50;4.60;;;8.20;87.10;;;;;;5060408;28;20187;-65
2021/12/22 05:46:09;;;;;;;10.02;4.88;;;8.20;87.50;;;;;;5076681;28;20044;-65
2021/12/22 05:48:37;;;;;;;5.28;3.67;;;8.20;87.70;;;;;;5060107;28;20051;-66
2021/12/22 05:51:04;;;;;;;7.07;4.43;;;8.20;88.10;;;;;;5093424;28;20082;-65
2021/12/22 05:53:32;;;;;;;5.43;4.78;;;8.20;88.00;;;;;;5059822;28;20032;-66
2021/12/22 05:55:59;;;;;;;5.45;4.03;;;8.20;87.80;;;;;;5076484;28;20094;-66
2021/12/22 05:58:27;;;;;;;5.20;3.63;;;8.20;87.90;;;;;;5076430;28;20498;-66
2021/12/22 06:00:56;;;;;;;5.88;4.00;;;8.10;87.70;;;;;;5076201;28;20051;-66
2021/12/22 06:03:23;;;;;;;7.10;4.57;;;8.10;87.60;;;;;;5059750;28;20510;-66
2021/12/22 06:05:51;;;;;;;6.55;4.30;;;8.10;88.00;;;;;;5059236;28;20048;-66
2021/12/22 06:08:18;;;;;;;7.88;4.53;;;8.10;88.50;;;;;;5076454;28;20406;-66
2021/12/22 06:10:46;;;;;;;5.50;3.95;;;8.10;88.90;;;;;;5076219;28;20075;-66
2021/12/22 06:13:14;;;;;;;6.55;4.65;;;8.10;89.00;;;;;;5059520;28;20056;-66
2021/12/22 06:15:41;;;;;;;6.03;3.90;;;8.10;89.20;;;;;;5076279;28;20040;-66
2021/12/22 06:18:09;;;;;;;12.00;5.75;;;8.10;89.10;;;;;;5076116;28;20049;-66
2021/12/22 06:20:36;;;;;;;12.90;7.32;;;8.10;89.10;;;;;;5076042;28;20524;-66
2021/12/22 06:23:04;;;;;;;12.65;8.63;;;8.10;89.30;;;;;;5059645;28;20494;-66
2021/12/22 06:25:34;;;;;;;15.00;9.20;;;8.10;89.60;;;;;;5093076;28;20086;-66
2021/12/22 06:28:02;;;;;;;10.65;7.22;;;8.10;89.50;;;;;;5075614;28;20493;-66
2021/12/22 06:30:30;;;;;;;18.08;8.00;;;8.10;89.40;;;;;;5075640;28;20036;-67
2021/12/22 06:32:58;;;;;;;10.25;5.55;;;8.10;89.70;;;;;;5075655;28;20043;-66
2021/12/22 06:35:26;;;;;;;9.93;5.13;;;8.10;89.80;;;;;;5075790;28;20039;-65
2021/12/22 06:37:53;;;;;;;11.02;5.07;;;8.10;89.90;;;;;;5075684;28;20048;-66
2021/12/22 06:40:21;;;;;;;8.48;4.63;;;8.20;89.90;;;;;;5076389;28;20379;-66
2021/12/22 06:42:49;;;;;;;6.47;4.75;;;8.20;89.80;;;;;;5075868;28;20040;-66
2021/12/22 06:45:17;;;;;;;8.38;5.07;;;8.20;89.40;;;;;;5092113;28;20048;-66
2021/12/22 06:47:44;;;;;;;7.20;5.20;;;8.20;89.10;;;;;;5075735;28;20370;-66
2021/12/22 06:50:12;;;;;;;8.98;5.55;;;8.20;89.00;;;;;;5093484;28;20040;-66
2021/12/22 06:52:40;;;;;;;11.18;6.55;;;8.20;89.40;;;;;;5059194;28;20398;-65
2021/12/22 06:55:08;;;;;;;10.45;6.20;;;8.30;89.80;;;;;;5076033;28;20048;-65
2021/12/22 06:57:36;;;;;;;14.55;7.20;;;8.30;90.00;;;;;;5059145;28;20143;-65
2021/12/22 07:00:06;;;;;;;15.35;6.75;;;8.30;90.00;;;;;;5075739;28;20051;-65
2021/12/22 07:02:37;;;;;;;10.55;6.82;;;8.30;89.90;;;;;;5093713;28;20552;-65
2021/12/22 07:05:17;;;;;;;16.58;9.82;;;8.40;90.10;;;;;;5077364;28;20055;-65
2021/12/22 07:07:45;;;;;;;17.42;10.77;;;8.40;90.10;;;;;;5075816;28;20047;-65
2021/12/22 07:10:12;;;;;;;21.33;12.60;;;8.40;90.10;;;;;;5059027;28;20045;-65
2021/12/22 07:12:42;;;;;;;25.50;12.15;;;8.40;90.10;;;;;;5058766;28;20101;-65
2021/12/22 07:15:11;;;;;;;18.77;12.07;;;8.40;90.20;;;;;;5075545;28;20039;-66
2021/12/22 07:17:45;;;;;;;21.60;12.65;;;8.40;90.30;;;;;;5075608;28;20490;-65
2021/12/22 07:20:15;;;;;;;28.10;9.32;;;8.50;90.20;;;;;;5093337;28;20371;-66
2021/12/22 07:22:43;;;;;;;13.07;8.10;;;8.50;90.20;;;;;;5075436;28;20044;-66
2021/12/22 07:25:12;;;;;;;11.32;7.50;;;8.60;90.40;;;;;;5075509;28;20043;-66
2021/12/22 07:27:40;;;;;;;12.85;9.23;;;8.60;90.40;;;;;;5075292;28;20127;-66
2021/12/22 07:30:08;;;;;;;12.90;8.77;;;8.60;90.30;;;;;;5058600;28;20044;-65
2021/12/22 07:32:36;;;;;;;11.43;7.68;;;8.60;90.40;;;;;;5075401;28;20386;-65
2021/12/22 07:35:25;;;;;;;14.43;7.10;;;8.70;90.60;;;;;;5075500;28;20047;-65
2021/12/22 07:38:17;;;;;;;9.02;6.32;;;8.70;90.70;;;;;;5075097;28;20448;-65
2021/12/22 07:40:45;;;;;;;8.90;5.70;;;8.70;90.60;;;;;;5058557;28;20143;-65
2021/12/22 07:43:12;;;;;;;8.73;5.35;;;8.80;90.50;;;;;;5092909;28;20036;-65
2021/12/22 07:45:40;;;;;;;11.30;7.65;;;8.80;90.50;;;;;;5075427;28;20076;-65
2021/12/22 07:48:08;;;;;;;15.98;10.23;;;8.90;90.60;;;;;;5042112;28;20052;-66
2021/12/22 07:50:35;;;;;;;20.58;11.95;;;8.90;90.90;;;;;;5093175;28;20568;-66
2021/12/22 07:53:03;;;;;;;17.95;9.77;;;9.00;90.50;;;;;;5075167;28;20044;-65
2021/12/22 07:55:31;;;;;;;12.65;6.32;;;9.00;90.40;;;;;;5075309;28;20040;-66
2021/12/22 07:57:59;;;;;;;10.57;5.07;;;9.10;90.50;;;;;;5076303;28;20059;-66
2021/12/22 08:00:28;;;;;;;6.40;4.18;;;9.10;90.60;;;;;;5062337;28;20490;-66
2021/12/22 08:02:56;;;;;;;8.18;4.80;;;9.20;90.90;;;;;;5078779;28;20391;-66
2021/12/22 08:05:44;;;;;;;10.90;4.85;;;9.20;91.00;;;;;;5084431;28;20028;-66
2021/12/22 08:08:12;;;;;;;10.70;5.20;;;9.30;91.10;;;;;;5090978;28;20429;-67
2021/12/22 08:10:41;;;;;;;14.60;6.72;;;9.30;90.80;;;;;;5115728;27;20047;-67
2021/12/22 08:13:09;;;;;;;13.35;5.90;;;9.30;90.70;;;;;;5080366;28;20036;-66
2021/12/22 08:15:37;;;;;;;13.73;5.43;;;9.40;90.70;;;;;;5088921;28;20051;-66
2021/12/22 08:18:04;;;;;;;15.68;7.80;;;9.40;90.70;;;;;;5089681;28;20040;-66
2021/12/22 08:20:32;;;;;;;16.20;8.05;;;9.40;90.90;;;;;;5077728;28;20147;-66
2021/12/22 08:22:59;;;;;;;11.18;6.70;;;9.40;90.60;;;;;;5096644;28;20051;-66
2021/12/22 08:25:27;;;;;;;16.88;6.93;;;9.40;90.60;;;;;;5080677;28;20523;-66
2021/12/22 08:27:54;;;;;;;11.07;5.22;;;9.50;90.60;;;;;;5098571;28;20050;-67
2021/12/22 08:30:22;;;;;;;12.95;6.28;;;9.50;90.70;;;;;;5098146;28;20077;-66
2021/12/22 08:32:50;;;;;;;13.07;5.70;;;9.50;90.80;;;;;;5098677;28;20044;-66
2021/12/22 08:35:20;;;;;;;10.88;7.22;;;9.60;90.90;;;;;;5082024;28;20054;-66
2021/12/22 08:40:34;;;;;;;13.88;9.75;;;9.80;91.10;;;;;;5098459;28;20143;-66
2021/12/22 08:43:02;;;;;;;15.63;9.55;;;9.90;91.20;;;;;;5116450;28;20047;-66
2021/12/22 08:45:30;;;;;;;8.60;5.97;;;10.00;91.30;;;;;;5098428;28;20134;-66
2021/12/22 08:47:57;;;;;;;8.05;4.70;;;10.10;91.30;;;;;;5116410;28;20054;-66
2021/12/22 08:50:26;;;;;;;9.75;4.53;;;10.20;91.10;;;;;;5116153;28;20040;-66
2021/12/22 08:52:55;;;;;;;7.10;3.40;;;10.40;90.80;;;;;;5098389;28;20052;-66
2021/12/22 08:55:23;;;;;;;6.00;3.47;;;10.50;90.50;;;;;;5097804;28;20071;-66
2021/12/22 08:57:51;;;;;;;4.45;3.20;;;10.70;90.40;;;;;;5116224;28;20040;-66
2021/12/22 09:00:18;;;;;;;6.50;3.42;;;10.90;90.30;;;;;;5081261;28;20047;-66
2021/12/22 09:02:46;;;;;;;8.18;4.65;;;11.00;89.80;;;;;;5097980;28;20079;-66
2021/12/22 09:05:13;;;;;;;5.13;3.75;;;11.20;89.20;;;;;;5081043;28;20043;-66
2021/12/22 09:07:41;;;;;;;6.90;3.78;;;11.40;88.70;;;;;;5080966;28;20046;-66
2021/12/22 09:10:09;;;;;;;13.60;5.25;;;11.50;88.30;;;;;;5080711;28;20073;-66
2021/12/22 09:12:37;;;;;;;8.20;5.43;;;11.70;88.10;;;;;;5080960;28;20473;-66
2021/12/22 09:15:05;;;;;;;9.27;5.75;;;11.70;87.70;;;;;;5080659;28;20214;-66
2021/12/22 09:17:33;;;;;;;7.05;5.35;;;11.60;86.90;;;;;;5097717;28;20075;-66
2021/12/22 09:20:01;;;;;;;6.40;4.47;;;11.60;86.60;;;;;;5080799;28;20058;-66
2021/12/22 09:22:28;;;;;;;7.15;3.97;;;11.50;86.80;;;;;;5081170;28;20056;-66
2021/12/22 09:24:56;;;;;;;6.18;3.17;;;11.40;86.90;;;;;;5097901;28;20093;-66
2021/12/22 09:27:24;;;;;;;5.43;3.08;;;11.30;86.80;;;;;;5080564;28;20048;-66
2021/12/22 09:29:54;;;;;;;5.80;3.28;;;11.30;87.00;;;;;;5064368;28;20048;-66
2021/12/22 09:32:21;;;;;;;7.03;3.10;;;11.20;87.50;;;;;;5097256;28;20032;-66
2021/12/22 09:34:50;;;;;;;5.40;2.40;;;11.10;87.40;;;;;;5115236;28;20060;-66
2021/12/22 09:37:18;;;;;;;6.93;2.28;;;11.20;87.30;;;;;;5080437;28;20079;-66
2021/12/22 09:39:46;;;;;;;3.53;2.13;;;11.10;87.80;;;;;;5080652;28;20126;-66
2021/12/22 09:42:13;;;;;;;4.40;2.40;;;11.20;86.90;;;;;;5097276;28;20404;-66
2021/12/22 09:44:45;;;;;;;6.65;2.28;;;11.20;86.70;;;;;;5097215;28;20447;-66
2021/12/22 09:47:23;;;;;;;4.57;2.75;;;11.30;86.40;;;;;;5115070;28;20096;-66
2021/12/22 09:52:36;;;;;;;3.58;2.45;;;11.30;84.60;;;;;;5096947;28;20036;-66
2021/12/22 09:55:06;;;;;;;4.22;2.10;;;11.30;84.40;;;;;;5096866;28;20122;-66
2021/12/22 09:57:34;;;;;;;3.45;2.33;;;11.40;84.60;;;;;;5096815;28;20143;-66
2021/12/22 10:00:05;;;;;;;3.67;2.47;;;11.30;85.40;;;;;;5079975;28;20512;-66
2021/12/22 10:02:40;;;;;;;4.20;2.38;;;11.30;85.60;;;;;;5097179;28;20051;-66
2021/12/22 10:05:08;;;;;;;7.25;2.85;;;11.30;85.20;;;;;;5096823;28;20055;-66
2021/12/22 10:07:38;;;;;;;4.95;2.80;;;11.30;85.60;;;;;;5079632;28;20078;-66
2021/12/22 10:10:09;;;;;;;6.43;3.40;;;11.30;85.90;;;;;;5096755;28;20040;-66
2021/12/22 10:12:39;;;;;;;3.47;2.72;;;11.40;85.70;;;;;;5096520;28;20129;-66
2021/12/22 10:15:08;;;;;;;4.38;2.72;;;11.50;86.00;;;;;;5079813;28;20394;-66
2021/12/22 10:17:42;;;;;;;4.55;2.67;;;11.70;85.30;;;;;;5079635;28;20146;-71
2021/12/22 10:20:16;;;;;;;4.05;2.33;;;12.00;85.10;;;;;;5114198;28;20047;-71
2021/12/22 10:22:48;;;;;;;4.53;3.13;;;12.40;85.10;;;;;;5062735;28;20044;-71
2021/12/22 10:25:21;;;;;;;7.03;3.03;;;12.70;83.80;;;;;;5114334;28;20043;-71
2021/12/22 10:28:02;;;;;;;4.70;2.10;;;13.00;82.60;;;;;;5114646;28;20039;-70
2021/12/22 10:31:01;;;;;;;7.07;2.90;;;13.30;80.60;;;;;;5079466;28;20043;-70
2021/12/22 10:33:31;;;;;;;5.40;2.47;;;13.50;80.40;;;;;;5096302;28;20044;-71
2021/12/22 10:36:03;;;;;;;3.28;1.80;;;13.70;80.20;;;;;;5079524;28;20129;-71
2021/12/22 10:38:32;;;;;;;2.28;1.50;;;13.80;79.70;;;;;;5095946;28;20047;-71
2021/12/22 10:41:10;;;;;;;5.13;1.92;;;13.90;78.80;;;;;;5096287;28;20108;-71
2021/12/22 10:43:48;;;;;;;2.90;1.83;;;14.00;78.60;;;;;;5079213;28;20108;-71
2021/12/22 10:46:28;;;;;;;3.42;2.13;;;14.10;79.00;;;;;;5079492;28;20047;-71
2021/12/22 10:49:14;;;;;;;2.70;1.73;;;14.20;78.50;;;;;;5079429;28;20075;-71
2021/12/22 10:51:54;;;;;;;2.80;1.70;;;14.30;78.40;;;;;;5096100;28;20047;-71
2021/12/22 10:54:34;;;;;;;3.40;1.77;;;14.40;78.20;;;;;;5096093;28;20043;-71
2021/12/22 10:57:04;;;;;;;4.95;2.15;;;14.30;77.00;;;;;;5096170;28;20501;-71
2021/12/22 10:59:53;;;;;;;5.30;2.30;;;14.30;76.60;;;;;;5096244;28;20046;-71
2021/12/22 11:02:25;;;;;;;4.90;2.35;;;14.10;76.90;;;;;;5095965;28;20051;-71
2021/12/22 11:04:53;;;;;;;5.18;2.92;;;14.00;77.30;;;;;;5079249;28;20438;-71
2021/12/22 11:07:28;;;;;;;12.63;4.18;;;13.90;78.10;;;;;;5079124;28;20115;-71
2021/12/22 11:09:55;;;;;;;6.18;4.07;;;13.80;78.60;;;;;;5079288;28;20047;-70
2021/12/22 11:12:37;;;;;;;7.15;5.15;;;13.80;79.20;;;;;;5096044;28;20059;-70
2021/12/22 11:15:22;;;;;;;3.75;3.20;;;13.70;79.70;;;;;;5079421;28;20044;-70
2021/12/22 11:17:50;;;;;;;7.10;3.33;;;13.70;80.00;;;;;;5113837;28;20040;-70
2021/12/22 11:20:22;;;;;;;4.40;2.20;;;13.60;80.00;;;;;;5113935;28;20118;-70
2021/12/22 11:23:04;;;;;;;3.63;2.10;;;13.70;80.30;;;;;;5095997;28;20043;-70
2021/12/22 11:25:32;;;;;;;4.05;2.38;;;13.70;80.60;;;;;;5113676;28;20130;-71
2021/12/22 11:28:00;;;;;;;6.20;2.35;;;13.70;79.00;;;;;;5078907;28;20043;-71
2021/12/22 11:30:28;;;;;;;3.17;2.20;;;13.60;76.40;;;;;;5078914;28;20046;-71
2021/12/22 11:32:56;;;;;;;3.22;2.00;;;13.50;76.50;;;;;;5098260;28;20048;-71
2021/12/22 11:35:24;;;;;;;4.22;1.83;;;13.50;76.20;;;;;;5082752;28;20079;-71
2021/12/22 11:37:53;;;;;;;2.47;1.50;;;13.60;76.20;;;;;;5082532;28;20056;-71
2021/12/22 11:40:22;;;;;;;2.20;1.60;;;13.50;75.50;;;;;;5082516;28;20457;-71
2021/12/22 11:42:50;;;;;;;2.53;1.40;;;13.50;75.10;;;;;;5099506;28;20538;-71
2021/12/22 11:45:20;;;;;;;1.75;1.55;;;13.40;74.90;;;;;;5117417;28;20046;-72
2021/12/22 11:47:52;;;;;;;3.17;1.42;;;13.30;74.10;;;;;;5082394;28;20051;-72
2021/12/22 11:50:29;;;;;;;2.55;1.67;;;13.30;74.70;;;;;;5066069;28;20058;-71
2021/12/22 11:53:02;;;;;;;2.85;1.55;;;13.20;73.90;;;;;;5117392;28;20063;-71
2021/12/22 11:55:51;;;;;;;2.35;1.40;;;13.10;74.20;;;;;;5117332;28;20092;-71
2021/12/22 11:58:35;;;;;;;2.70;1.65;;;13.00;74.30;;;;;;5099273;28;20050;-71
2021/12/22 12:01:12;;;;;;;2.78;1.30;;;13.10;74.10;;;;;;5099283;28;20064;-71
2021/12/22 12:03:44;;;;;;;2.67;1.10;;;13.10;73.30;;;;;;5082257;28;20031;-71
2021/12/22 12:06:17;;;;;;;2.72;1.40;;;13.00;73.20;;;;;;5117102;28;20521;-71
2021/12/22 12:08:52;;;;;;;3.88;1.27;;;13.10;73.30;;;;;;5066044;28;20520;-71
2021/12/22 12:11:42;;;;;;;2.70;1.33;;;13.10;73.40;;;;;;5116894;28;20044;-71
2021/12/22 12:23:30;;;;;;;4.97;1.40;;;13.00;72.20;;;;;;5098808;28;20542;-71
2021/12/22 12:26:02;;;;;;;9.05;5.30;;;13.00;73.10;;;;;;5116714;28;20123;-71
2021/12/22 12:28:43;;;;;;;6.18;4.03;;;13.00;75.70;;;;;;5116644;28;20509;-72
2021/12/22 12:31:10;;;;;;;4.05;2.97;;;13.00;75.70;;;;;;5098653;28;20039;-72
2021/12/22 12:33:44;;;;;;;5.18;2.80;;;13.00;76.30;;;;;;5081598;28;20047;-71
2021/12/22 12:36:15;;;;;;;4.05;2.50;;;13.00;80.90;;;;;;5080987;28;20071;-71
2021/12/22 12:38:49;;;;;;;4.97;3.35;;;12.90;82.80;;;;;;5116181;28;20424;-71
2021/12/22 12:41:28;;;;;;;5.50;3.55;;;12.70;83.70;;;;;;5081867;28;20404;-71
2021/12/22 12:44:09;;;;;;;4.32;2.90;;;12.60;84.30;;;;;;5080942;28;20039;-71
2021/12/22 12:46:42;;;;;;;5.38;3.65;;;12.60;84.90;;;;;;5116449;28;20039;-71
2021/12/22 12:49:13;;;;;;;5.57;3.38;;;12.60;85.80;;;;;;5098410;28;20082;-71
2021/12/22 12:51:46;;;;;;;5.57;3.85;;;12.60;86.30;;;;;;5098037;28;20035;-71
2021/12/22 12:54:17;;;;;;;6.00;4.10;;;12.50;86.60;;;;;;5098176;28;20122;-71
2021/12/22 12:56:49;;;;;;;4.60;3.42;;;12.60;87.10;;;;;;5064551;28;20054;-71
2021/12/22 12:59:26;;;;;;;5.00;3.58;;;12.40;87.10;;;;;;5081261;28;20146;-71
2021/12/22 13:01:54;;;;;;;6.90;3.25;;;12.40;87.20;;;;;;5069303;28;20083;-71
2021/12/22 13:04:34;;;;;;;5.38;3.70;;;12.40;86.90;;;;;;5080906;28;20120;-71
2021/12/22 13:07:12;;;;;;;6.70;4.35;;;12.50;87.40;;;;;;5081008;28;20114;-71
2021/12/22 13:09:41;;;;;;;8.00;4.47;;;12.40;87.90;;;;;;5097880;28;20039;-71
2021/12/22 13:12:34;;;;;;;5.70;4.20;;;12.50;87.80;;;;;;5080972;28;20043;-71
2021/12/22 13:17:55;;;;;;;6.20;3.63;;;12.50;87.00;;;;;;5097762;28;20481;-71
2021/12/22 13:20:28;;;;;;;5.88;3.58;;;12.40;87.80;;;;;;5080930;28;20488;-70
2021/12/22 13:23:11;;;;;;;7.45;5.00;;;12.40;88.80;;;;;;5097793;28;20040;-71
2021/12/22 13:25:42;;;;;;;5.53;4.03;;;12.40;88.30;;;;;;5097449;28;20040;-70
2021/12/22 13:28:16;;;;;;;6.43;4.28;;;12.30;88.50;;;;;;5097533;28;20046;-71
2021/12/22 13:30:52;;;;;;;7.18;4.10;;;12.30;88.50;;;;;;5115578;28;20050;-70
2021/12/22 13:33:26;;;;;;;7.05;3.53;;;12.20;90.00;;;;;;5097213;28;20036;-71
2021/12/22 13:35:55;;;;;;;6.72;3.40;;;12.10;88.40;;;;;;5115345;28;20047;-70
2021/12/22 13:38:35;;;;;;;3.35;2.72;;;12.10;88.20;;;;;;5115050;28;20055;-70